createdAt,value
2022-08-17T00:03:10.248Z,100.00
2022-08-17T00:06:17.245Z,100.00
2022-08-17T00:09:18.219Z,100.00
2022-08-17T00:12:41.714Z,100.00
2022-08-17T00:15:33.922Z,100.00
2022-08-17T00:19:05.818Z,100.00
2022-08-17T00:22:29.787Z,100.00
2022-08-17T00:25:16.781Z,100.00
2022-08-17T00:28:16.161Z,100.00
2022-08-17T00:31:13.866Z,100.00
2022-08-17T00:34:10.772Z,100.00
2022-08-17T00:37:07.632Z,100.00
2022-08-17T00:40:05.858Z,100.00
2022-08-17T00:43:47.355Z,100.00
2022-08-17T00:46:45.487Z,100.00
2022-08-17T00:49:42.374Z,100.00
2022-08-17T00:52:52.541Z,100.00
2022-08-17T00:55:49.525Z,100.00
2022-08-17T00:58:47.228Z,100.00
2022-08-17T01:01:44.806Z,100.00
2022-08-17T01:04:46.564Z,100.00
2022-08-17T01:07:44.567Z,100.00
2022-08-17T01:10:59.735Z,100.00
2022-08-17T01:13:58.423Z,100.00
2022-08-17T01:16:56.298Z,100.00
2022-08-17T01:19:53.229Z,100.00
2022-08-17T01:22:50.215Z,100.00
2022-08-17T01:25:51.367Z,100.00
2022-08-17T01:28:54.974Z,100.00
2022-08-17T01:32:00.066Z,100.00
2022-08-17T01:34:57.417Z,100.00
2022-08-17T01:37:54.279Z,100.00
2022-08-17T01:40:57.973Z,100.00
2022-08-17T01:44:00.953Z,100.00
2022-08-17T01:46:58.156Z,100.00
2022-08-17T01:49:57.902Z,100.00
2022-08-17T01:53:00.687Z,100.00
2022-08-17T01:56:05.412Z,100.00
2022-08-17T01:59:02.913Z,100.00
2022-08-17T02:02:00.441Z,100.00
2022-08-17T02:04:57.283Z,100.00
2022-08-17T02:08:00.232Z,100.00
2022-08-17T02:10:58.074Z,100.00
2022-08-17T02:13:58.315Z,100.00
2022-08-17T02:16:59.884Z,100.00
2022-08-17T02:19:56.945Z,100.00
2022-08-17T02:22:53.834Z,100.00
2022-08-17T02:25:50.894Z,100.00
2022-08-17T02:28:47.740Z,100.00
2022-08-17T02:31:44.770Z,100.00
2022-08-17T02:34:41.591Z,100.00
2022-08-17T02:37:38.844Z,100.00
2022-08-17T02:40:37.245Z,100.00
2022-08-17T02:43:34.914Z,100.00
2022-08-17T02:46:32.426Z,100.00
2022-08-17T02:49:29.241Z,100.00
2022-08-17T02:52:42.979Z,100.00
2022-08-17T02:55:43.507Z,100.00
2022-08-17T02:58:40.412Z,100.00
2022-08-17T03:01:37.323Z,100.00
2022-08-17T03:04:35.498Z,100.00
2022-08-17T03:07:32.428Z,100.00
2022-08-17T03:10:29.816Z,100.00
2022-08-17T03:13:27.210Z,100.00
2022-08-17T03:16:24.048Z,100.00
2022-08-17T03:19:20.870Z,100.00
2022-08-17T03:22:34.702Z,100.00
2022-08-17T03:25:38.745Z,100.00
2022-08-17T03:28:35.620Z,100.00
2022-08-17T03:31:32.473Z,100.00
2022-08-17T03:34:30.218Z,100.00
2022-08-17T03:37:27.181Z,100.00
2022-08-17T03:40:55.622Z,100.00
2022-08-17T03:43:41.330Z,100.00
2022-08-17T03:46:56.784Z,100.00
2022-08-17T03:50:28.587Z,100.00
2022-08-17T03:53:44.054Z,100.00
2022-08-17T03:56:42.291Z,100.00
2022-08-17T03:59:41.195Z,100.00
2022-08-17T04:02:38.052Z,100.00
2022-08-17T04:05:34.883Z,100.00
2022-08-17T04:08:32.049Z,100.00
2022-08-17T04:11:28.929Z,100.00
2022-08-17T04:14:25.740Z,100.00
2022-08-17T04:17:26.712Z,100.00
2022-08-17T04:20:25.163Z,100.00
2022-08-17T04:23:21.999Z,100.00
2022-08-17T04:26:52.810Z,100.00
2022-08-17T04:29:44.669Z,100.00
2022-08-17T04:33:08.587Z,100.00
2022-08-17T04:36:07.849Z,100.00
2022-08-17T04:39:05.209Z,100.00
2022-08-17T04:42:07.934Z,100.00
2022-08-17T04:45:05.513Z,100.00
2022-08-17T04:48:02.584Z,100.00
2022-08-17T04:51:00.087Z,100.00
2022-08-17T04:54:02.081Z,100.00
2022-08-17T04:56:58.987Z,100.00
2022-08-17T04:59:55.829Z,100.00
2022-08-17T05:02:55.327Z,100.00
2022-08-17T05:05:52.506Z,100.00
2022-08-17T05:08:49.624Z,100.00
2022-08-17T05:11:47.273Z,100.00
2022-08-17T05:14:44.075Z,100.00
2022-08-17T05:17:40.925Z,100.00
2022-08-17T05:20:39.665Z,100.00
2022-08-17T05:23:42.696Z,100.00
2022-08-17T05:26:40.006Z,100.00
2022-08-17T05:29:39.312Z,100.00
2022-08-17T05:32:38.322Z,100.00
2022-08-17T05:35:42.592Z,100.00
2022-08-17T05:38:39.769Z,100.00
2022-08-17T05:41:36.648Z,100.00
2022-08-17T05:44:33.480Z,100.00
2022-08-17T05:47:31.284Z,100.00
2022-08-17T05:50:42.372Z,100.00
2022-08-17T05:54:06.983Z,100.00
2022-08-17T05:57:21.426Z,100.00
2022-08-17T06:00:21.895Z,100.00
2022-08-17T06:03:39.194Z,100.00
2022-08-17T06:07:15.962Z,100.00
2022-08-17T06:10:40.506Z,100.00
2022-08-17T06:14:20.523Z,100.00
2022-08-17T06:17:23.838Z,100.00
2022-08-17T06:20:20.967Z,100.00
2022-08-17T06:23:44.940Z,100.00
2022-08-17T06:26:45.374Z,100.00
2022-08-17T06:29:50.643Z,100.00
2022-08-17T06:32:51.109Z,100.00
2022-08-17T06:36:41.592Z,100.00
2022-08-17T06:40:20.454Z,100.00
2022-08-17T06:43:43.998Z,100.00
2022-08-17T06:47:00.142Z,100.00
2022-08-17T06:50:17.495Z,100.00
2022-08-17T06:53:35.432Z,100.00
2022-08-17T06:56:55.705Z,100.00
2022-08-17T07:00:14.448Z,100.00
2022-08-17T07:03:41.111Z,100.00
2022-08-17T07:06:49.537Z,100.00
2022-08-17T07:09:46.441Z,100.00
2022-08-17T07:12:45.661Z,100.00
2022-08-17T07:15:44.748Z,100.00
2022-08-17T07:18:43.724Z,100.00
2022-08-17T07:22:04.525Z,100.00
2022-08-17T07:25:07.005Z,100.00
2022-08-17T07:28:07.232Z,100.00
2022-08-17T07:31:04.761Z,100.00
2022-08-17T07:34:08.345Z,100.00
2022-08-17T07:37:05.551Z,100.00
2022-08-17T07:40:19.408Z,100.00
2022-08-17T07:43:26.100Z,100.00
2022-08-17T07:46:52.720Z,100.00
2022-08-17T07:49:50.550Z,100.00
2022-08-17T07:52:52.264Z,100.00
2022-08-17T07:55:51.681Z,100.00
2022-08-17T07:58:49.122Z,100.00
2022-08-17T08:01:57.733Z,100.00
2022-08-17T08:05:49.416Z,100.00
2022-08-17T08:08:50.418Z,100.00
2022-08-17T08:11:47.343Z,100.00
2022-08-17T08:14:56.245Z,100.00
2022-08-17T08:18:04.781Z,91.47
2022-08-17T08:21:18.337Z,97.92
2022-08-17T08:24:30.822Z,100.00
2022-08-17T08:27:41.801Z,90.53
2022-08-17T08:30:49.799Z,91.16
2022-08-17T08:35:00.688Z,90.16
2022-08-17T08:38:07.565Z,80.44
2022-08-17T08:41:54.613Z,78.54
2022-08-17T08:45:19.871Z,85.38
2022-08-17T08:49:11.849Z,79.90
2022-08-17T08:52:49.166Z,91.97
2022-08-17T08:55:54.986Z,64.30
2022-08-17T08:59:35.190Z,65.17
2022-08-17T09:03:04.604Z,63.45
2022-08-17T09:06:39.017Z,66.56
2022-08-17T09:10:06.461Z,69.36
2022-08-17T09:13:54.209Z,70.85
2022-08-17T09:17:02.193Z,58.33
2022-08-17T09:20:27.898Z,74.85
2022-08-17T09:23:44.843Z,59.36
2022-08-17T09:26:54.836Z,73.64
2022-08-17T09:30:08.438Z,56.58
2022-08-17T09:33:09.373Z,52.08
2022-08-17T09:36:18.672Z,58.63
2022-08-17T09:39:36.539Z,60.15
2022-08-17T09:42:45.208Z,52.94
2022-08-17T09:45:51.934Z,50.66
2022-08-17T09:49:02.517Z,61.90
2022-08-17T09:52:09.818Z,50.15
2022-08-17T09:55:07.187Z,47.65
2022-08-17T09:58:48.826Z,51.30
2022-08-17T10:02:01.931Z,47.02
2022-08-17T10:05:05.276Z,44.79
2022-08-17T10:08:32.110Z,44.79
2022-08-17T10:12:07.707Z,49.83
2022-08-17T10:15:18.734Z,46.09
2022-08-17T10:19:02.487Z,45.50
2022-08-17T10:22:34.470Z,43.42
2022-08-17T10:26:12.886Z,46.99
2022-08-17T10:29:09.732Z,52.47
2022-08-17T10:32:11.612Z,51.75
2022-08-17T10:35:25.678Z,47.79
2022-08-17T10:38:49.608Z,42.84
2022-08-17T10:41:53.137Z,43.14
2022-08-17T10:45:07.293Z,48.57
2022-08-17T10:48:07.390Z,43.75
2022-08-17T10:51:37.815Z,44.83
2022-08-17T10:54:47.286Z,39.24
2022-08-17T10:57:50.220Z,43.92
2022-08-17T11:00:58.458Z,49.09
2022-08-17T11:03:59.491Z,42.20
2022-08-17T11:07:48.133Z,44.19
2022-08-17T11:11:15.083Z,55.71
2022-08-17T11:14:36.098Z,43.46
2022-08-17T11:18:25.224Z,43.98
2022-08-17T11:22:02.373Z,45.97
2022-08-17T11:25:22.628Z,42.33
2022-08-17T11:28:34.463Z,42.71
2022-08-17T11:31:41.116Z,46.68
2022-08-17T11:34:41.767Z,43.25
2022-08-17T11:38:10.844Z,39.27
2022-08-17T11:41:31.418Z,39.71
2022-08-17T11:44:58.026Z,39.21
2022-08-17T11:48:28.265Z,42.21
2022-08-17T11:52:11.158Z,49.13
2022-08-17T11:55:39.415Z,53.80
2022-08-17T11:58:42.605Z,42.54
2022-08-17T12:01:55.749Z,43.33
2022-08-17T12:05:14.363Z,42.15
2022-08-17T12:08:21.438Z,42.34
2022-08-17T12:12:01.542Z,41.99
2022-08-17T12:15:18.745Z,41.81
2022-08-17T12:18:25.749Z,41.41
2022-08-17T12:22:00.287Z,40.90
2022-08-17T12:25:10.812Z,39.89
2022-08-17T12:28:29.724Z,39.57
2022-08-17T12:31:43.304Z,37.06
2022-08-17T12:34:42.890Z,39.17
2022-08-17T12:37:47.654Z,38.49
2022-08-17T12:40:58.121Z,39.18
2022-08-17T12:44:15.822Z,35.08
2022-08-17T12:47:22.674Z,35.73
2022-08-17T12:50:28.807Z,34.33
2022-08-17T12:53:31.989Z,37.34
2022-08-17T12:56:29.907Z,35.48
2022-08-17T12:59:30.399Z,36.12
2022-08-17T13:02:43.394Z,34.03
2022-08-17T13:05:57.554Z,36.51
2022-08-17T13:08:54.426Z,39.47
2022-08-17T13:11:58.512Z,37.92
2022-08-17T13:14:57.376Z,37.23
2022-08-17T13:18:25.299Z,39.13
2022-08-17T13:21:30.493Z,40.22
2022-08-17T13:24:38.150Z,38.27
2022-08-17T13:27:35.998Z,39.14
2022-08-17T13:30:33.539Z,40.51
2022-08-17T13:33:44.827Z,42.69
2022-08-17T13:36:43.790Z,38.26
2022-08-17T13:39:42.827Z,40.04
2022-08-17T13:42:51.741Z,38.91
2022-08-17T13:45:52.503Z,39.02
2022-08-17T13:49:11.731Z,40.96
2022-08-17T13:52:34.152Z,38.75
2022-08-17T13:55:32.003Z,40.84
2022-08-17T13:58:36.041Z,39.56
2022-08-17T14:01:45.873Z,38.80
2022-08-17T14:04:48.077Z,39.84
2022-08-17T14:07:45.029Z,41.40
2022-08-17T14:10:42.804Z,39.51
2022-08-17T14:13:39.628Z,39.46
2022-08-17T14:16:41.723Z,39.48
2022-08-17T14:19:39.605Z,40.15
2022-08-17T14:22:41.123Z,40.67
2022-08-17T14:25:37.956Z,41.37
2022-08-17T14:28:36.523Z,40.71
2022-08-17T14:31:37.563Z,40.51
2022-08-17T14:34:34.569Z,41.25
2022-08-17T14:37:32.090Z,41.18
2022-08-17T14:40:29.285Z,40.52
2022-08-17T14:43:26.540Z,40.26
2022-08-17T14:46:45.609Z,43.13
2022-08-17T14:49:42.852Z,41.75
2022-08-17T14:52:41.727Z,41.63
2022-08-17T14:55:40.680Z,42.62
2022-08-17T14:58:38.511Z,42.74
2022-08-17T15:01:35.490Z,42.81
2022-08-17T15:04:32.347Z,41.30
2022-08-17T15:07:30.270Z,41.52
2022-08-17T15:10:29.307Z,44.84
2022-08-17T15:13:27.510Z,42.34
2022-08-17T15:16:24.392Z,42.78
2022-08-17T15:19:21.296Z,41.95
2022-08-17T15:22:28.140Z,44.34
2022-08-17T15:25:31.640Z,48.55
2022-08-17T15:28:28.487Z,46.74
2022-08-17T15:31:31.799Z,49.22
2022-08-17T15:34:29.996Z,51.49
2022-08-17T15:37:29.484Z,53.43
2022-08-17T15:40:26.845Z,56.26
2022-08-17T15:43:28.344Z,55.58
2022-08-17T15:46:26.743Z,58.83
2022-08-17T15:49:23.567Z,54.90
2022-08-17T15:52:27.301Z,56.72
2022-08-17T15:55:26.190Z,57.46
2022-08-17T15:58:32.246Z,60.45
2022-08-17T16:03:01.812Z,62.49
2022-08-17T16:04:49.115Z,69.66
2022-08-17T16:07:50.081Z,68.78
2022-08-17T16:10:48.539Z,72.03
2022-08-17T16:13:47.399Z,69.30
2022-08-17T16:16:52.727Z,70.14
2022-08-17T16:19:51.557Z,69.74
2022-08-17T16:22:50.552Z,71.95
2022-08-17T16:25:52.721Z,73.05
2022-08-17T16:28:52.153Z,77.27
2022-08-17T16:31:49.825Z,84.34
2022-08-17T16:34:46.703Z,81.17
2022-08-17T16:37:45.666Z,82.62
2022-08-17T16:40:42.688Z,90.48
2022-08-17T16:43:39.553Z,86.25
2022-08-17T16:46:38.066Z,84.03
2022-08-17T16:49:37.795Z,80.40
2022-08-17T16:52:35.830Z,82.61
2022-08-17T16:55:35.482Z,78.97
2022-08-17T16:58:32.341Z,90.60
2022-08-17T17:01:30.417Z,92.44
2022-08-17T17:04:27.719Z,84.13
2022-08-17T17:07:44.134Z,85.17
2022-08-17T17:10:55.852Z,93.62
2022-08-17T17:13:59.557Z,94.79
2022-08-17T17:17:19.166Z,97.38
2022-08-17T17:21:00.393Z,94.62
2022-08-17T17:24:04.661Z,96.66
2022-08-17T17:27:38.093Z,100.00
2022-08-17T17:31:02.163Z,99.87
2022-08-17T17:34:04.632Z,99.21
2022-08-17T17:37:13.630Z,93.09
2022-08-17T17:40:40.258Z,96.27
2022-08-17T17:43:40.316Z,100.00
2022-08-17T17:46:41.966Z,98.79
2022-08-17T17:49:44.561Z,100.00
2022-08-17T17:52:50.241Z,100.00
2022-08-17T17:56:33.077Z,100.00
2022-08-17T18:00:45.831Z,100.00
2022-08-17T18:04:20.234Z,100.00
2022-08-17T18:07:40.921Z,100.00
2022-08-17T18:11:24.371Z,100.00
2022-08-17T18:14:56.308Z,100.00
2022-08-17T18:18:05.483Z,100.00
2022-08-17T18:21:27.512Z,100.00
2022-08-17T18:24:40.455Z,100.00
2022-08-17T18:27:49.423Z,100.00
2022-08-17T18:31:14.802Z,100.00
2022-08-17T18:37:52.134Z,100.00
2022-08-17T18:41:18.493Z,100.00
2022-08-17T18:44:45.087Z,100.00
2022-08-17T18:47:56.174Z,100.00
2022-08-17T18:50:58.217Z,100.00
2022-08-17T18:54:21.573Z,100.00
2022-08-17T18:57:38.079Z,100.00
2022-08-17T19:00:41.401Z,100.00
2022-08-17T19:03:43.188Z,100.00
2022-08-17T19:06:40.424Z,100.00
2022-08-17T19:09:47.127Z,100.00
2022-08-17T19:13:12.637Z,100.00
2022-08-17T19:16:57.775Z,100.00
2022-08-17T19:20:01.143Z,100.00
2022-08-17T19:23:23.789Z,100.00
2022-08-17T19:26:55.345Z,100.00
2022-08-17T19:29:56.507Z,100.00
2022-08-17T19:32:54.441Z,100.00
2022-08-17T19:36:21.455Z,100.00
2022-08-17T19:39:59.301Z,100.00
2022-08-17T19:43:11.941Z,100.00
2022-08-17T19:46:26.018Z,100.00
2022-08-17T19:49:46.720Z,100.00
2022-08-17T19:53:08.304Z,100.00
2022-08-17T19:56:29.429Z,100.00
2022-08-17T19:59:53.843Z,100.00
2022-08-17T20:03:16.118Z,100.00
2022-08-17T20:06:14.406Z,100.00
2022-08-17T20:09:40.011Z,100.00
2022-08-17T20:12:43.951Z,100.00
2022-08-17T20:15:43.182Z,100.00
2022-08-17T20:19:00.643Z,100.00
2022-08-17T20:22:27.476Z,100.00
2022-08-17T20:25:56.731Z,100.00
2022-08-17T20:29:15.307Z,100.00
2022-08-17T20:32:26.598Z,100.00
2022-08-17T20:35:30.332Z,100.00
2022-08-17T20:38:42.629Z,100.00
2022-08-17T20:42:07.335Z,100.00
2022-08-17T20:45:25.903Z,100.00
2022-08-17T20:48:38.649Z,100.00
2022-08-17T20:52:08.822Z,100.00
2022-08-17T20:55:06.478Z,100.00
2022-08-17T20:58:15.305Z,100.00
2022-08-17T21:01:20.133Z,100.00
2022-08-17T21:04:52.965Z,100.00
2022-08-17T21:07:58.229Z,100.00
2022-08-17T21:10:57.479Z,100.00
2022-08-17T21:14:40.823Z,100.00
2022-08-17T21:17:46.982Z,100.00
2022-08-17T21:21:31.560Z,100.00
2022-08-17T21:24:40.239Z,100.00
2022-08-17T21:28:15.620Z,100.00
2022-08-17T21:31:30.606Z,100.00
2022-08-17T21:34:43.082Z,100.00
2022-08-17T21:37:49.867Z,100.00
2022-08-17T21:40:53.060Z,100.00
2022-08-17T21:43:52.611Z,100.00
2022-08-17T21:46:53.287Z,100.00
2022-08-17T21:49:53.920Z,100.00
2022-08-17T21:52:56.072Z,100.00
2022-08-17T21:55:53.430Z,100.00
2022-08-17T21:59:03.520Z,100.00
2022-08-17T22:02:16.778Z,100.00
2022-08-17T22:05:15.222Z,100.00
2022-08-17T22:08:22.294Z,100.00
2022-08-17T22:11:19.141Z,100.00
2022-08-17T22:14:52.265Z,100.00
2022-08-17T22:17:50.852Z,100.00
2022-08-17T22:20:57.723Z,100.00
2022-08-17T22:24:06.446Z,100.00
2022-08-17T22:27:11.552Z,100.00
2022-08-17T22:30:42.717Z,100.00
2022-08-17T22:34:00.204Z,100.00
2022-08-17T22:37:28.085Z,100.00
2022-08-17T22:40:30.441Z,100.00
2022-08-17T22:43:28.707Z,100.00
2022-08-17T22:46:26.208Z,100.00
2022-08-17T22:49:38.470Z,100.00
2022-08-17T22:53:37.794Z,100.00
2022-08-17T22:56:53.692Z,100.00
2022-08-17T22:59:54.752Z,100.00
2022-08-17T23:03:26.321Z,100.00
2022-08-17T23:06:24.252Z,100.00
2022-08-17T23:09:21.714Z,100.00
2022-08-17T23:12:26.491Z,100.00
2022-08-17T23:15:27.101Z,100.00
2022-08-17T23:18:25.240Z,100.00
2022-08-17T23:21:27.085Z,100.00
2022-08-17T23:24:31.054Z,100.00
2022-08-17T23:27:29.299Z,100.00
2022-08-17T23:30:28.407Z,100.00
2022-08-17T23:33:31.373Z,100.00
2022-08-17T23:36:28.418Z,100.00
2022-08-17T23:39:28.160Z,100.00
2022-08-17T23:42:25.333Z,100.00
2022-08-17T23:45:22.177Z,100.00
2022-08-17T23:48:35.073Z,100.00
2022-08-17T23:51:39.653Z,100.00
2022-08-17T23:54:44.350Z,100.00
2022-08-17T23:57:41.483Z,100.00
